Coloma, Indiana
Current Conditions -  °F | °C
As of 1:35 PM on Sunday 21 Dec 2014 (Local Time) from K4I7 Reporting Station
Clear Clear  
Wind Chill: 31°   Ceiling: Unl
Heat Index: 36°   Visibility: 7mi
Dew Point: 27°   Wind: 6mph
Humidity: 70%   Direction: 120°ESE
Pressure: 30.2"   Gusts: NA
Location:  39.7714°N, 87.1705°W
Report Text: K4I7 211835Z AUTO 12005KT 7SM CLR 02/M03 A3020 RMK AO2
Loading
Personal Weather Stations






























Interactive Weather Map New forecast layout! Learn more

10-Day Weather Forecast

Advertisements
Track Severe Weather on mobile